<?xml version="1.0" encoding="UTF-8" standalone="no" ?>
<gpx xmlns="http://www.topografix.com/GPX/1/1" xmlns:xsi="http://www.w3.org/2001/XMLSchema-instance" xsi:schemaLocation="http://www.topografix.com/GPX/1/1 http://www.topografix.com/GPX/1/1/gpx.xsd" version="1.1" creator="VisuGPX - https://www.visugpx.com">
  <metadata>
    <name>Course à pied le midi</name>
  </metadata>
  <trk>
    <name><![CDATA[Course à pied le midi_1]]></name>
    <trkseg>
      <trkpt lat="48.71151" lon="7.1627">
        <ele>316.6</ele>
        <time>2023-11-23T10:21:08Z</time>
      </trkpt>
      <trkpt lat="48.71169" lon="7.16259">
        <ele>315.7</ele>
        <time>2023-11-23T10:21:14Z</time>
      </trkpt>
      <trkpt lat="48.71187" lon="7.16252">
        <ele>314.8</ele>
        <time>2023-11-23T10:21:20Z</time>
      </trkpt>
      <trkpt lat="48.71206" lon="7.16256">
        <ele>314</ele>
        <time>2023-11-23T10:21:26Z</time>
      </trkpt>
      <trkpt lat="48.71224" lon="7.16268">
        <ele>313.3</ele>
        <time>2023-11-23T10:21:32Z</time>
      </trkpt>
      <trkpt lat="48.7124" lon="7.16283">
        <ele>312.9</ele>
        <time>2023-11-23T10:21:37Z</time>
      </trkpt>
      <trkpt lat="48.71257" lon="7.16299">
        <ele>312.5</ele>
        <time>2023-11-23T10:21:43Z</time>
      </trkpt>
      <trkpt lat="48.71274" lon="7.16317">
        <ele>312.2</ele>
        <time>2023-11-23T10:21:49Z</time>
      </trkpt>
      <trkpt lat="48.7129" lon="7.16333">
        <ele>312</ele>
        <time>2023-11-23T10:21:55Z</time>
      </trkpt>
      <trkpt lat="48.71306" lon="7.16345">
        <ele>311.8</ele>
        <time>2023-11-23T10:22:01Z</time>
      </trkpt>
      <trkpt lat="48.71323" lon="7.16358">
        <ele>311.6</ele>
        <time>2023-11-23T10:22:07Z</time>
      </trkpt>
      <trkpt lat="48.71339" lon="7.16369">
        <ele>311.3</ele>
        <time>2023-11-23T10:22:13Z</time>
      </trkpt>
      <trkpt lat="48.71359" lon="7.16378">
        <ele>310.9</ele>
        <time>2023-11-23T10:22:20Z</time>
      </trkpt>
      <trkpt lat="48.71379" lon="7.16385">
        <ele>310.3</ele>
        <time>2023-11-23T10:22:27Z</time>
      </trkpt>
      <trkpt lat="48.71397" lon="7.16391">
        <ele>309.6</ele>
        <time>2023-11-23T10:22:33Z</time>
      </trkpt>
      <trkpt lat="48.71415" lon="7.16398">
        <ele>308.8</ele>
        <time>2023-11-23T10:22:39Z</time>
      </trkpt>
      <trkpt lat="48.71436" lon="7.16403">
        <ele>307.7</ele>
        <time>2023-11-23T10:22:46Z</time>
      </trkpt>
      <trkpt lat="48.71455" lon="7.16406">
        <ele>306.7</ele>
        <time>2023-11-23T10:22:52Z</time>
      </trkpt>
      <trkpt lat="48.71473" lon="7.16404">
        <ele>305.7</ele>
        <time>2023-11-23T10:22:58Z</time>
      </trkpt>
      <trkpt lat="48.71488" lon="7.16408">
        <ele>305</ele>
        <time>2023-11-23T10:23:03Z</time>
      </trkpt>
      <trkpt lat="48.71485" lon="7.16437">
        <ele>307.1</ele>
        <time>2023-11-23T10:23:10Z</time>
      </trkpt>
      <trkpt lat="48.71473" lon="7.16462">
        <ele>309.5</ele>
        <time>2023-11-23T10:23:18Z</time>
      </trkpt>
      <trkpt lat="48.71463" lon="7.16485">
        <ele>311.8</ele>
        <time>2023-11-23T10:23:27Z</time>
      </trkpt>
      <trkpt lat="48.71451" lon="7.16509">
        <ele>314.3</ele>
        <time>2023-11-23T10:23:36Z</time>
      </trkpt>
      <trkpt lat="48.71443" lon="7.16535">
        <ele>316.9</ele>
        <time>2023-11-23T10:23:46Z</time>
      </trkpt>
      <trkpt lat="48.71432" lon="7.1656">
        <ele>319</ele>
        <time>2023-11-23T10:23:57Z</time>
      </trkpt>
      <trkpt lat="48.71422" lon="7.16583">
        <ele>320.8</ele>
        <time>2023-11-23T10:24:06Z</time>
      </trkpt>
      <trkpt lat="48.71412" lon="7.16609">
        <ele>323</ele>
        <time>2023-11-23T10:24:14Z</time>
      </trkpt>
      <trkpt lat="48.71401" lon="7.16633">
        <ele>325.1</ele>
        <time>2023-11-23T10:24:21Z</time>
      </trkpt>
      <trkpt lat="48.7139" lon="7.16658">
        <ele>327.1</ele>
        <time>2023-11-23T10:24:29Z</time>
      </trkpt>
      <trkpt lat="48.7138" lon="7.16683">
        <ele>329.2</ele>
        <time>2023-11-23T10:24:37Z</time>
      </trkpt>
      <trkpt lat="48.71371" lon="7.16709">
        <ele>330.2</ele>
        <time>2023-11-23T10:24:45Z</time>
      </trkpt>
      <trkpt lat="48.71359" lon="7.16733">
        <ele>330.9</ele>
        <time>2023-11-23T10:24:52Z</time>
      </trkpt>
      <trkpt lat="48.71345" lon="7.16754">
        <ele>332.1</ele>
        <time>2023-11-23T10:24:59Z</time>
      </trkpt>
      <trkpt lat="48.71335" lon="7.16776">
        <ele>333.2</ele>
        <time>2023-11-23T10:25:06Z</time>
      </trkpt>
      <trkpt lat="48.71322" lon="7.16797">
        <ele>334.2</ele>
        <time>2023-11-23T10:25:13Z</time>
      </trkpt>
      <trkpt lat="48.71309" lon="7.16818">
        <ele>335.2</ele>
        <time>2023-11-23T10:25:20Z</time>
      </trkpt>
      <trkpt lat="48.71296" lon="7.16839">
        <ele>336</ele>
        <time>2023-11-23T10:25:27Z</time>
      </trkpt>
      <trkpt lat="48.71281" lon="7.1686">
        <ele>336.5</ele>
        <time>2023-11-23T10:25:34Z</time>
      </trkpt>
      <trkpt lat="48.71266" lon="7.16882">
        <ele>336.9</ele>
        <time>2023-11-23T10:25:41Z</time>
      </trkpt>
      <trkpt lat="48.71251" lon="7.169">
        <ele>337.6</ele>
        <time>2023-11-23T10:25:49Z</time>
      </trkpt>
      <trkpt lat="48.71234" lon="7.16915">
        <ele>338.5</ele>
        <time>2023-11-23T10:25:57Z</time>
      </trkpt>
      <trkpt lat="48.71215" lon="7.16925">
        <ele>339.5</ele>
        <time>2023-11-23T10:26:04Z</time>
      </trkpt>
      <trkpt lat="48.71195" lon="7.16926">
        <ele>340.7</ele>
        <time>2023-11-23T10:26:11Z</time>
      </trkpt>
      <trkpt lat="48.71175" lon="7.16924">
        <ele>341.7</ele>
        <time>2023-11-23T10:26:18Z</time>
      </trkpt>
      <trkpt lat="48.71156" lon="7.16926">
        <ele>342.3</ele>
        <time>2023-11-23T10:26:25Z</time>
      </trkpt>
      <trkpt lat="48.71137" lon="7.1693">
        <ele>343</ele>
        <time>2023-11-23T10:26:32Z</time>
      </trkpt>
      <trkpt lat="48.71118" lon="7.16936">
        <ele>344</ele>
        <time>2023-11-23T10:26:40Z</time>
      </trkpt>
      <trkpt lat="48.71098" lon="7.16945">
        <ele>344.8</ele>
        <time>2023-11-23T10:26:48Z</time>
      </trkpt>
      <trkpt lat="48.7108" lon="7.16958">
        <ele>345.4</ele>
        <time>2023-11-23T10:26:55Z</time>
      </trkpt>
      <trkpt lat="48.71062" lon="7.16974">
        <ele>346.2</ele>
        <time>2023-11-23T10:27:02Z</time>
      </trkpt>
      <trkpt lat="48.71048" lon="7.1699">
        <ele>347.1</ele>
        <time>2023-11-23T10:27:08Z</time>
      </trkpt>
      <trkpt lat="48.71032" lon="7.17009">
        <ele>347.8</ele>
        <time>2023-11-23T10:27:15Z</time>
      </trkpt>
      <trkpt lat="48.71018" lon="7.17031">
        <ele>348.9</ele>
        <time>2023-11-23T10:27:22Z</time>
      </trkpt>
      <trkpt lat="48.71007" lon="7.17054">
        <ele>349.9</ele>
        <time>2023-11-23T10:27:29Z</time>
      </trkpt>
      <trkpt lat="48.70997" lon="7.1708">
        <ele>350.6</ele>
        <time>2023-11-23T10:27:36Z</time>
      </trkpt>
      <trkpt lat="48.70988" lon="7.17104">
        <ele>350.9</ele>
        <time>2023-11-23T10:27:42Z</time>
      </trkpt>
      <trkpt lat="48.7098" lon="7.17128">
        <ele>351.2</ele>
        <time>2023-11-23T10:27:48Z</time>
      </trkpt>
      <trkpt lat="48.70971" lon="7.17156">
        <ele>351.7</ele>
        <time>2023-11-23T10:27:55Z</time>
      </trkpt>
      <trkpt lat="48.70963" lon="7.17183">
        <ele>352.2</ele>
        <time>2023-11-23T10:28:02Z</time>
      </trkpt>
      <trkpt lat="48.70956" lon="7.17212">
        <ele>352.8</ele>
        <time>2023-11-23T10:28:09Z</time>
      </trkpt>
      <trkpt lat="48.70952" lon="7.17241">
        <ele>353.2</ele>
        <time>2023-11-23T10:28:16Z</time>
      </trkpt>
      <trkpt lat="48.70945" lon="7.17268">
        <ele>353.4</ele>
        <time>2023-11-23T10:28:23Z</time>
      </trkpt>
      <trkpt lat="48.7095" lon="7.17295">
        <ele>353.7</ele>
        <time>2023-11-23T10:28:30Z</time>
      </trkpt>
      <trkpt lat="48.70959" lon="7.17322">
        <ele>354</ele>
        <time>2023-11-23T10:28:37Z</time>
      </trkpt>
      <trkpt lat="48.70966" lon="7.17352">
        <ele>354.2</ele>
        <time>2023-11-23T10:28:44Z</time>
      </trkpt>
      <trkpt lat="48.70975" lon="7.17377">
        <ele>354.4</ele>
        <time>2023-11-23T10:28:50Z</time>
      </trkpt>
      <trkpt lat="48.70984" lon="7.17403">
        <ele>354.5</ele>
        <time>2023-11-23T10:28:56Z</time>
      </trkpt>
      <trkpt lat="48.70993" lon="7.1743">
        <ele>354.6</ele>
        <time>2023-11-23T10:29:02Z</time>
      </trkpt>
      <trkpt lat="48.70999" lon="7.17458">
        <ele>354.8</ele>
        <time>2023-11-23T10:29:08Z</time>
      </trkpt>
      <trkpt lat="48.71003" lon="7.17487">
        <ele>355.1</ele>
        <time>2023-11-23T10:29:14Z</time>
      </trkpt>
      <trkpt lat="48.71002" lon="7.17515">
        <ele>355.3</ele>
        <time>2023-11-23T10:29:20Z</time>
      </trkpt>
      <trkpt lat="48.71001" lon="7.17543">
        <ele>355.7</ele>
        <time>2023-11-23T10:29:26Z</time>
      </trkpt>
      <trkpt lat="48.71001" lon="7.17571">
        <ele>356</ele>
        <time>2023-11-23T10:29:32Z</time>
      </trkpt>
      <trkpt lat="48.71002" lon="7.17599">
        <ele>356.4</ele>
        <time>2023-11-23T10:29:38Z</time>
      </trkpt>
      <trkpt lat="48.71005" lon="7.1763">
        <ele>357</ele>
        <time>2023-11-23T10:29:45Z</time>
      </trkpt>
      <trkpt lat="48.71012" lon="7.17659">
        <ele>357.4</ele>
        <time>2023-11-23T10:29:52Z</time>
      </trkpt>
      <trkpt lat="48.71024" lon="7.17682">
        <ele>357.8</ele>
        <time>2023-11-23T10:29:58Z</time>
      </trkpt>
      <trkpt lat="48.71038" lon="7.17704">
        <ele>358</ele>
        <time>2023-11-23T10:30:04Z</time>
      </trkpt>
      <trkpt lat="48.71052" lon="7.17724">
        <ele>358.3</ele>
        <time>2023-11-23T10:30:10Z</time>
      </trkpt>
      <trkpt lat="48.71067" lon="7.17743">
        <ele>358.4</ele>
        <time>2023-11-23T10:30:16Z</time>
      </trkpt>
      <trkpt lat="48.71081" lon="7.17763">
        <ele>358.5</ele>
        <time>2023-11-23T10:30:22Z</time>
      </trkpt>
      <trkpt lat="48.71096" lon="7.17782">
        <ele>358.5</ele>
        <time>2023-11-23T10:30:28Z</time>
      </trkpt>
      <trkpt lat="48.7111" lon="7.17804">
        <ele>358.5</ele>
        <time>2023-11-23T10:30:35Z</time>
      </trkpt>
      <trkpt lat="48.71126" lon="7.17821">
        <ele>358.6</ele>
        <time>2023-11-23T10:30:41Z</time>
      </trkpt>
      <trkpt lat="48.71142" lon="7.1784">
        <ele>358.5</ele>
        <time>2023-11-23T10:30:47Z</time>
      </trkpt>
      <trkpt lat="48.71156" lon="7.17861">
        <ele>358.6</ele>
        <time>2023-11-23T10:30:53Z</time>
      </trkpt>
      <trkpt lat="48.7117" lon="7.17885">
        <ele>358.7</ele>
        <time>2023-11-23T10:31:00Z</time>
      </trkpt>
      <trkpt lat="48.71182" lon="7.17909">
        <ele>358.9</ele>
        <time>2023-11-23T10:31:07Z</time>
      </trkpt>
      <trkpt lat="48.71193" lon="7.17932">
        <ele>359.1</ele>
        <time>2023-11-23T10:31:13Z</time>
      </trkpt>
      <trkpt lat="48.71203" lon="7.17959">
        <ele>359.3</ele>
        <time>2023-11-23T10:31:20Z</time>
      </trkpt>
      <trkpt lat="48.71215" lon="7.17985">
        <ele>359.6</ele>
        <time>2023-11-23T10:31:27Z</time>
      </trkpt>
      <trkpt lat="48.71224" lon="7.18009">
        <ele>359.8</ele>
        <time>2023-11-23T10:31:33Z</time>
      </trkpt>
      <trkpt lat="48.71233" lon="7.18033">
        <ele>360</ele>
        <time>2023-11-23T10:31:39Z</time>
      </trkpt>
      <trkpt lat="48.71242" lon="7.18057">
        <ele>360.2</ele>
        <time>2023-11-23T10:31:45Z</time>
      </trkpt>
      <trkpt lat="48.71252" lon="7.1808">
        <ele>360.4</ele>
        <time>2023-11-23T10:31:51Z</time>
      </trkpt>
      <trkpt lat="48.71262" lon="7.18108">
        <ele>360.6</ele>
        <time>2023-11-23T10:31:58Z</time>
      </trkpt>
      <trkpt lat="48.71273" lon="7.18132">
        <ele>360.8</ele>
        <time>2023-11-23T10:32:04Z</time>
      </trkpt>
      <trkpt lat="48.71282" lon="7.18157">
        <ele>360.9</ele>
        <time>2023-11-23T10:32:10Z</time>
      </trkpt>
      <trkpt lat="48.71293" lon="7.18181">
        <ele>361.1</ele>
        <time>2023-11-23T10:32:16Z</time>
      </trkpt>
      <trkpt lat="48.71305" lon="7.18203">
        <ele>361.3</ele>
        <time>2023-11-23T10:32:22Z</time>
      </trkpt>
      <trkpt lat="48.71317" lon="7.18225">
        <ele>361.4</ele>
        <time>2023-11-23T10:32:28Z</time>
      </trkpt>
      <trkpt lat="48.71328" lon="7.18249">
        <ele>361.5</ele>
        <time>2023-11-23T10:32:34Z</time>
      </trkpt>
      <trkpt lat="48.7134" lon="7.18274">
        <ele>361.5</ele>
        <time>2023-11-23T10:32:41Z</time>
      </trkpt>
      <trkpt lat="48.71351" lon="7.183">
        <ele>361.6</ele>
        <time>2023-11-23T10:32:48Z</time>
      </trkpt>
      <trkpt lat="48.71363" lon="7.18323">
        <ele>361.6</ele>
        <time>2023-11-23T10:32:54Z</time>
      </trkpt>
      <trkpt lat="48.71373" lon="7.18347">
        <ele>361.7</ele>
        <time>2023-11-23T10:33:00Z</time>
      </trkpt>
      <trkpt lat="48.71385" lon="7.1837">
        <ele>361.8</ele>
        <time>2023-11-23T10:33:06Z</time>
      </trkpt>
      <trkpt lat="48.71395" lon="7.18394">
        <ele>362.5</ele>
        <time>2023-11-23T10:33:12Z</time>
      </trkpt>
      <trkpt lat="48.71406" lon="7.18418">
        <ele>362.9</ele>
        <time>2023-11-23T10:33:18Z</time>
      </trkpt>
      <trkpt lat="48.71418" lon="7.18442">
        <ele>363.1</ele>
        <time>2023-11-23T10:33:24Z</time>
      </trkpt>
      <trkpt lat="48.71424" lon="7.18466">
        <ele>363.2</ele>
        <time>2023-11-23T10:33:30Z</time>
      </trkpt>
      <trkpt lat="48.7141" lon="7.18483">
        <ele>363</ele>
        <time>2023-11-23T10:33:35Z</time>
      </trkpt>
      <trkpt lat="48.71393" lon="7.18498">
        <ele>362.5</ele>
        <time>2023-11-23T10:33:41Z</time>
      </trkpt>
      <trkpt lat="48.71377" lon="7.18513">
        <ele>361.7</ele>
        <time>2023-11-23T10:33:47Z</time>
      </trkpt>
      <trkpt lat="48.71359" lon="7.1853">
        <ele>360.4</ele>
        <time>2023-11-23T10:33:54Z</time>
      </trkpt>
      <trkpt lat="48.71343" lon="7.18549">
        <ele>358.6</ele>
        <time>2023-11-23T10:34:01Z</time>
      </trkpt>
      <trkpt lat="48.71327" lon="7.18569">
        <ele>356.3</ele>
        <time>2023-11-23T10:34:07Z</time>
      </trkpt>
      <trkpt lat="48.71311" lon="7.18585">
        <ele>354.4</ele>
        <time>2023-11-23T10:34:13Z</time>
      </trkpt>
      <trkpt lat="48.71313" lon="7.18612">
        <ele>353.7</ele>
        <time>2023-11-23T10:34:19Z</time>
      </trkpt>
      <trkpt lat="48.71324" lon="7.18637">
        <ele>353</ele>
        <time>2023-11-23T10:34:25Z</time>
      </trkpt>
      <trkpt lat="48.71335" lon="7.18663">
        <ele>352.6</ele>
        <time>2023-11-23T10:34:32Z</time>
      </trkpt>
      <trkpt lat="48.71347" lon="7.18685">
        <ele>352.5</ele>
        <time>2023-11-23T10:34:38Z</time>
      </trkpt>
      <trkpt lat="48.71358" lon="7.1871">
        <ele>352.8</ele>
        <time>2023-11-23T10:34:45Z</time>
      </trkpt>
      <trkpt lat="48.7137" lon="7.18735">
        <ele>353.5</ele>
        <time>2023-11-23T10:34:52Z</time>
      </trkpt>
      <trkpt lat="48.71382" lon="7.18758">
        <ele>354.3</ele>
        <time>2023-11-23T10:34:59Z</time>
      </trkpt>
      <trkpt lat="48.71395" lon="7.18779">
        <ele>355.3</ele>
        <time>2023-11-23T10:35:06Z</time>
      </trkpt>
      <trkpt lat="48.71405" lon="7.18803">
        <ele>356.4</ele>
        <time>2023-11-23T10:35:13Z</time>
      </trkpt>
      <trkpt lat="48.71412" lon="7.18827">
        <ele>357.2</ele>
        <time>2023-11-23T10:35:20Z</time>
      </trkpt>
      <trkpt lat="48.71396" lon="7.18846">
        <ele>356.7</ele>
        <time>2023-11-23T10:35:27Z</time>
      </trkpt>
      <trkpt lat="48.71379" lon="7.18863">
        <ele>356.3</ele>
        <time>2023-11-23T10:35:34Z</time>
      </trkpt>
      <trkpt lat="48.71363" lon="7.18882">
        <ele>356</ele>
        <time>2023-11-23T10:35:41Z</time>
      </trkpt>
      <trkpt lat="48.71347" lon="7.18899">
        <ele>355.7</ele>
        <time>2023-11-23T10:35:48Z</time>
      </trkpt>
      <trkpt lat="48.71331" lon="7.18916">
        <ele>355.4</ele>
        <time>2023-11-23T10:35:55Z</time>
      </trkpt>
      <trkpt lat="48.71314" lon="7.18932">
        <ele>355.2</ele>
        <time>2023-11-23T10:36:02Z</time>
      </trkpt>
      <trkpt lat="48.71297" lon="7.1895">
        <ele>355.4</ele>
        <time>2023-11-23T10:36:09Z</time>
      </trkpt>
      <trkpt lat="48.7128" lon="7.18966">
        <ele>355.5</ele>
        <time>2023-11-23T10:36:16Z</time>
      </trkpt>
      <trkpt lat="48.71263" lon="7.18984">
        <ele>355.6</ele>
        <time>2023-11-23T10:36:23Z</time>
      </trkpt>
      <trkpt lat="48.71246" lon="7.19">
        <ele>355.7</ele>
        <time>2023-11-23T10:36:30Z</time>
      </trkpt>
      <trkpt lat="48.71226" lon="7.19008">
        <ele>355.7</ele>
        <time>2023-11-23T10:36:37Z</time>
      </trkpt>
      <trkpt lat="48.71207" lon="7.19019">
        <ele>354.6</ele>
        <time>2023-11-23T10:36:44Z</time>
      </trkpt>
      <trkpt lat="48.71191" lon="7.19036">
        <ele>353.8</ele>
        <time>2023-11-23T10:36:51Z</time>
      </trkpt>
      <trkpt lat="48.71174" lon="7.1905">
        <ele>353.1</ele>
        <time>2023-11-23T10:36:58Z</time>
      </trkpt>
      <trkpt lat="48.71156" lon="7.19052">
        <ele>352.2</ele>
        <time>2023-11-23T10:37:04Z</time>
      </trkpt>
      <trkpt lat="48.71136" lon="7.1906">
        <ele>351.4</ele>
        <time>2023-11-23T10:37:10Z</time>
      </trkpt>
      <trkpt lat="48.71123" lon="7.19081">
        <ele>352.5</ele>
        <time>2023-11-23T10:37:18Z</time>
      </trkpt>
      <trkpt lat="48.71119" lon="7.19111">
        <ele>355.2</ele>
        <time>2023-11-23T10:37:26Z</time>
      </trkpt>
      <trkpt lat="48.71116" lon="7.19141">
        <ele>356.5</ele>
        <time>2023-11-23T10:37:34Z</time>
      </trkpt>
      <trkpt lat="48.71115" lon="7.19168">
        <ele>357.9</ele>
        <time>2023-11-23T10:37:41Z</time>
      </trkpt>
      <trkpt lat="48.71116" lon="7.19198">
        <ele>359.5</ele>
        <time>2023-11-23T10:37:50Z</time>
      </trkpt>
      <trkpt lat="48.7112" lon="7.19225">
        <ele>359.7</ele>
        <time>2023-11-23T10:37:56Z</time>
      </trkpt>
      <trkpt lat="48.71132" lon="7.19248">
        <ele>359.5</ele>
        <time>2023-11-23T10:38:04Z</time>
      </trkpt>
      <trkpt lat="48.71147" lon="7.19266">
        <ele>360.4</ele>
        <time>2023-11-23T10:38:13Z</time>
      </trkpt>
      <trkpt lat="48.71162" lon="7.19287">
        <ele>360.9</ele>
        <time>2023-11-23T10:38:22Z</time>
      </trkpt>
      <trkpt lat="48.71175" lon="7.1931">
        <ele>361.2</ele>
        <time>2023-11-23T10:38:29Z</time>
      </trkpt>
      <trkpt lat="48.71189" lon="7.19331">
        <ele>360.6</ele>
        <time>2023-11-23T10:38:37Z</time>
      </trkpt>
      <trkpt lat="48.71194" lon="7.19362">
        <ele>359.1</ele>
        <time>2023-11-23T10:38:47Z</time>
      </trkpt>
      <trkpt lat="48.71197" lon="7.19388">
        <ele>358</ele>
        <time>2023-11-23T10:38:53Z</time>
      </trkpt>
      <trkpt lat="48.71188" lon="7.19413">
        <ele>355</ele>
        <time>2023-11-23T10:38:59Z</time>
      </trkpt>
      <trkpt lat="48.7117" lon="7.19423">
        <ele>351.9</ele>
        <time>2023-11-23T10:39:09Z</time>
      </trkpt>
      <trkpt lat="48.71152" lon="7.19428">
        <ele>347.7</ele>
        <time>2023-11-23T10:39:17Z</time>
      </trkpt>
      <trkpt lat="48.71132" lon="7.19429">
        <ele>341.8</ele>
        <time>2023-11-23T10:39:25Z</time>
      </trkpt>
      <trkpt lat="48.71112" lon="7.19429">
        <ele>335.2</ele>
        <time>2023-11-23T10:39:34Z</time>
      </trkpt>
      <trkpt lat="48.71099" lon="7.19428">
        <ele>331.9</ele>
        <time>2023-11-23T10:39:40Z</time>
      </trkpt>
      <trkpt lat="48.71094" lon="7.19424">
        <ele>330.6</ele>
        <time>2023-11-23T10:39:43Z</time>
      </trkpt>
      <trkpt lat="48.71085" lon="7.19424">
        <ele>327.9</ele>
        <time>2023-11-23T10:39:50Z</time>
      </trkpt>
      <trkpt lat="48.71086" lon="7.19423">
        <ele>327.9</ele>
        <time>2023-11-23T10:39:51Z</time>
      </trkpt>
      <trkpt lat="48.71088" lon="7.19423">
        <ele>328.8</ele>
        <time>2023-11-23T10:39:52Z</time>
      </trkpt>
      <trkpt lat="48.71106" lon="7.19428">
        <ele>333.6</ele>
        <time>2023-11-23T10:40:02Z</time>
      </trkpt>
      <trkpt lat="48.71124" lon="7.19428">
        <ele>340.1</ele>
        <time>2023-11-23T10:40:13Z</time>
      </trkpt>
      <trkpt lat="48.71143" lon="7.19431">
        <ele>345.1</ele>
        <time>2023-11-23T10:40:21Z</time>
      </trkpt>
      <trkpt lat="48.71163" lon="7.1943">
        <ele>349.9</ele>
        <time>2023-11-23T10:40:32Z</time>
      </trkpt>
      <trkpt lat="48.7117" lon="7.19427">
        <ele>351.7</ele>
        <time>2023-11-23T10:40:36Z</time>
      </trkpt>
      <trkpt lat="48.71172" lon="7.19426">
        <ele>352.2</ele>
        <time>2023-11-23T10:40:41Z</time>
      </trkpt>
      <trkpt lat="48.71153" lon="7.19428">
        <ele>348.3</ele>
        <time>2023-11-23T10:40:56Z</time>
      </trkpt>
      <trkpt lat="48.71134" lon="7.19425">
        <ele>342.7</ele>
        <time>2023-11-23T10:41:05Z</time>
      </trkpt>
      <trkpt lat="48.71115" lon="7.19426">
        <ele>336.5</ele>
        <time>2023-11-23T10:41:14Z</time>
      </trkpt>
      <trkpt lat="48.71095" lon="7.1942">
        <ele>330.6</ele>
        <time>2023-11-23T10:41:22Z</time>
      </trkpt>
      <trkpt lat="48.7109" lon="7.1942">
        <ele>330</ele>
        <time>2023-11-23T10:41:25Z</time>
      </trkpt>
      <trkpt lat="48.71092" lon="7.1942">
        <ele>329.7</ele>
        <time>2023-11-23T10:41:27Z</time>
      </trkpt>
      <trkpt lat="48.71111" lon="7.19425">
        <ele>335.5</ele>
        <time>2023-11-23T10:41:40Z</time>
      </trkpt>
      <trkpt lat="48.71129" lon="7.19423">
        <ele>341.3</ele>
        <time>2023-11-23T10:41:53Z</time>
      </trkpt>
      <trkpt lat="48.71149" lon="7.19424">
        <ele>347.3</ele>
        <time>2023-11-23T10:42:02Z</time>
      </trkpt>
      <trkpt lat="48.71163" lon="7.19424">
        <ele>350.3</ele>
        <time>2023-11-23T10:42:10Z</time>
      </trkpt>
      <trkpt lat="48.71167" lon="7.19423">
        <ele>351.3</ele>
        <time>2023-11-23T10:42:13Z</time>
      </trkpt>
      <trkpt lat="48.71165" lon="7.19425">
        <ele>350.6</ele>
        <time>2023-11-23T10:42:17Z</time>
      </trkpt>
      <trkpt lat="48.71146" lon="7.19422">
        <ele>346.6</ele>
        <time>2023-11-23T10:42:29Z</time>
      </trkpt>
      <trkpt lat="48.71127" lon="7.19426">
        <ele>340</ele>
        <time>2023-11-23T10:42:38Z</time>
      </trkpt>
      <trkpt lat="48.71108" lon="7.19428">
        <ele>334.5</ele>
        <time>2023-11-23T10:42:47Z</time>
      </trkpt>
      <trkpt lat="48.71091" lon="7.19423">
        <ele>329.7</ele>
        <time>2023-11-23T10:42:57Z</time>
      </trkpt>
      <trkpt lat="48.7109" lon="7.19423">
        <ele>328.8</ele>
        <time>2023-11-23T10:42:59Z</time>
      </trkpt>
      <trkpt lat="48.71091" lon="7.19423">
        <ele>329.7</ele>
        <time>2023-11-23T10:43:00Z</time>
      </trkpt>
      <trkpt lat="48.71094" lon="7.19425">
        <ele>330.3</ele>
        <time>2023-11-23T10:43:02Z</time>
      </trkpt>
      <trkpt lat="48.71113" lon="7.19425">
        <ele>336.5</ele>
        <time>2023-11-23T10:43:15Z</time>
      </trkpt>
      <trkpt lat="48.71131" lon="7.1942">
        <ele>342.1</ele>
        <time>2023-11-23T10:43:28Z</time>
      </trkpt>
      <trkpt lat="48.7115" lon="7.19425">
        <ele>347.7</ele>
        <time>2023-11-23T10:43:37Z</time>
      </trkpt>
      <trkpt lat="48.71163" lon="7.19422">
        <ele>350.3</ele>
        <time>2023-11-23T10:43:44Z</time>
      </trkpt>
      <trkpt lat="48.71167" lon="7.19424">
        <ele>351.3</ele>
        <time>2023-11-23T10:43:47Z</time>
      </trkpt>
      <trkpt lat="48.71166" lon="7.19428">
        <ele>350.6</ele>
        <time>2023-11-23T10:43:53Z</time>
      </trkpt>
      <trkpt lat="48.71148" lon="7.19425">
        <ele>347</ele>
        <time>2023-11-23T10:44:04Z</time>
      </trkpt>
      <trkpt lat="48.71128" lon="7.19428">
        <ele>340.8</ele>
        <time>2023-11-23T10:44:13Z</time>
      </trkpt>
      <trkpt lat="48.71108" lon="7.19427">
        <ele>334.5</ele>
        <time>2023-11-23T10:44:21Z</time>
      </trkpt>
      <trkpt lat="48.71089" lon="7.19421">
        <ele>328.7</ele>
        <time>2023-11-23T10:44:29Z</time>
      </trkpt>
      <trkpt lat="48.7109" lon="7.19421">
        <ele>328.7</ele>
        <time>2023-11-23T10:44:30Z</time>
      </trkpt>
      <trkpt lat="48.71091" lon="7.19422">
        <ele>329.6</ele>
        <time>2023-11-23T10:44:32Z</time>
      </trkpt>
      <trkpt lat="48.71105" lon="7.19424">
        <ele>333.9</ele>
        <time>2023-11-23T10:44:43Z</time>
      </trkpt>
      <trkpt lat="48.71123" lon="7.1942">
        <ele>339.6</ele>
        <time>2023-11-23T10:44:55Z</time>
      </trkpt>
      <trkpt lat="48.71142" lon="7.19419">
        <ele>346.2</ele>
        <time>2023-11-23T10:45:05Z</time>
      </trkpt>
      <trkpt lat="48.71152" lon="7.1942">
        <ele>348.3</ele>
        <time>2023-11-23T10:45:11Z</time>
      </trkpt>
      <trkpt lat="48.71156" lon="7.19418">
        <ele>349.5</ele>
        <time>2023-11-23T10:45:14Z</time>
      </trkpt>
      <trkpt lat="48.71159" lon="7.19419">
        <ele>350</ele>
        <time>2023-11-23T10:45:19Z</time>
      </trkpt>
      <trkpt lat="48.71157" lon="7.1942">
        <ele>349.2</ele>
        <time>2023-11-23T10:45:21Z</time>
      </trkpt>
      <trkpt lat="48.71137" lon="7.19425">
        <ele>343.5</ele>
        <time>2023-11-23T10:45:34Z</time>
      </trkpt>
      <trkpt lat="48.71119" lon="7.19431">
        <ele>337.9</ele>
        <time>2023-11-23T10:45:45Z</time>
      </trkpt>
      <trkpt lat="48.711" lon="7.19428">
        <ele>331.9</ele>
        <time>2023-11-23T10:45:53Z</time>
      </trkpt>
      <trkpt lat="48.7109" lon="7.19423">
        <ele>329.6</ele>
        <time>2023-11-23T10:45:57Z</time>
      </trkpt>
      <trkpt lat="48.71092" lon="7.19423">
        <ele>329.6</ele>
        <time>2023-11-23T10:45:59Z</time>
      </trkpt>
      <trkpt lat="48.7111" lon="7.19427">
        <ele>335.4</ele>
        <time>2023-11-23T10:46:12Z</time>
      </trkpt>
      <trkpt lat="48.71129" lon="7.19422">
        <ele>341.3</ele>
        <time>2023-11-23T10:46:27Z</time>
      </trkpt>
      <trkpt lat="48.71148" lon="7.19421">
        <ele>347.3</ele>
        <time>2023-11-23T10:46:38Z</time>
      </trkpt>
      <trkpt lat="48.71153" lon="7.19421">
        <ele>348.6</ele>
        <time>2023-11-23T10:46:42Z</time>
      </trkpt>
      <trkpt lat="48.71156" lon="7.19422">
        <ele>349.1</ele>
        <time>2023-11-23T10:46:46Z</time>
      </trkpt>
      <trkpt lat="48.71136" lon="7.19423">
        <ele>344</ele>
        <time>2023-11-23T10:47:00Z</time>
      </trkpt>
      <trkpt lat="48.71116" lon="7.19428">
        <ele>337.4</ele>
        <time>2023-11-23T10:47:11Z</time>
      </trkpt>
      <trkpt lat="48.71097" lon="7.19426">
        <ele>331</ele>
        <time>2023-11-23T10:47:19Z</time>
      </trkpt>
      <trkpt lat="48.71088" lon="7.19419">
        <ele>329</ele>
        <time>2023-11-23T10:47:24Z</time>
      </trkpt>
      <trkpt lat="48.71089" lon="7.19418">
        <ele>329</ele>
        <time>2023-11-23T10:47:28Z</time>
      </trkpt>
      <trkpt lat="48.71107" lon="7.1942">
        <ele>335.2</ele>
        <time>2023-11-23T10:47:41Z</time>
      </trkpt>
      <trkpt lat="48.71122" lon="7.19414">
        <ele>340.6</ele>
        <time>2023-11-23T10:47:54Z</time>
      </trkpt>
      <trkpt lat="48.7114" lon="7.19415">
        <ele>345.8</ele>
        <time>2023-11-23T10:48:05Z</time>
      </trkpt>
      <trkpt lat="48.71149" lon="7.19414">
        <ele>348</ele>
        <time>2023-11-23T10:48:09Z</time>
      </trkpt>
      <trkpt lat="48.7114" lon="7.19421">
        <ele>344.9</ele>
        <time>2023-11-23T10:48:26Z</time>
      </trkpt>
      <trkpt lat="48.71121" lon="7.19424">
        <ele>339.1</ele>
        <time>2023-11-23T10:48:38Z</time>
      </trkpt>
      <trkpt lat="48.71102" lon="7.19423">
        <ele>333</ele>
        <time>2023-11-23T10:48:46Z</time>
      </trkpt>
      <trkpt lat="48.71088" lon="7.19417">
        <ele>329</ele>
        <time>2023-11-23T10:48:54Z</time>
      </trkpt>
      <trkpt lat="48.71089" lon="7.19419">
        <ele>329</ele>
        <time>2023-11-23T10:48:55Z</time>
      </trkpt>
      <trkpt lat="48.71105" lon="7.19422">
        <ele>333.9</ele>
        <time>2023-11-23T10:49:06Z</time>
      </trkpt>
      <trkpt lat="48.71124" lon="7.19418">
        <ele>340.9</ele>
        <time>2023-11-23T10:49:20Z</time>
      </trkpt>
      <trkpt lat="48.71144" lon="7.19419">
        <ele>346.1</ele>
        <time>2023-11-23T10:49:33Z</time>
      </trkpt>
      <trkpt lat="48.71154" lon="7.19415">
        <ele>349.2</ele>
        <time>2023-11-23T10:49:39Z</time>
      </trkpt>
      <trkpt lat="48.71159" lon="7.19415">
        <ele>350.3</ele>
        <time>2023-11-23T10:49:44Z</time>
      </trkpt>
      <trkpt lat="48.71139" lon="7.19418">
        <ele>345.3</ele>
        <time>2023-11-23T10:49:58Z</time>
      </trkpt>
      <trkpt lat="48.71121" lon="7.19426">
        <ele>338.3</ele>
        <time>2023-11-23T10:50:08Z</time>
      </trkpt>
      <trkpt lat="48.71101" lon="7.19424">
        <ele>332.1</ele>
        <time>2023-11-23T10:50:17Z</time>
      </trkpt>
      <trkpt lat="48.71089" lon="7.1942">
        <ele>329</ele>
        <time>2023-11-23T10:50:22Z</time>
      </trkpt>
      <trkpt lat="48.7109" lon="7.19422">
        <ele>328.7</ele>
        <time>2023-11-23T10:50:24Z</time>
      </trkpt>
      <trkpt lat="48.71108" lon="7.19428">
        <ele>334.4</ele>
        <time>2023-11-23T10:50:36Z</time>
      </trkpt>
      <trkpt lat="48.71126" lon="7.19425">
        <ele>339.9</ele>
        <time>2023-11-23T10:50:48Z</time>
      </trkpt>
      <trkpt lat="48.71146" lon="7.19424">
        <ele>346.5</ele>
        <time>2023-11-23T10:50:59Z</time>
      </trkpt>
      <trkpt lat="48.7116" lon="7.19422">
        <ele>349.6</ele>
        <time>2023-11-23T10:51:07Z</time>
      </trkpt>
      <trkpt lat="48.71164" lon="7.19423">
        <ele>350.2</ele>
        <time>2023-11-23T10:51:13Z</time>
      </trkpt>
      <trkpt lat="48.71161" lon="7.19424">
        <ele>350.2</ele>
        <time>2023-11-23T10:51:16Z</time>
      </trkpt>
      <trkpt lat="48.71143" lon="7.19425">
        <ele>345.3</ele>
        <time>2023-11-23T10:51:26Z</time>
      </trkpt>
      <trkpt lat="48.71124" lon="7.19426">
        <ele>339.1</ele>
        <time>2023-11-23T10:51:35Z</time>
      </trkpt>
      <trkpt lat="48.71106" lon="7.19424">
        <ele>333.8</ele>
        <time>2023-11-23T10:51:43Z</time>
      </trkpt>
      <trkpt lat="48.7109" lon="7.19421">
        <ele>329.6</ele>
        <time>2023-11-23T10:51:51Z</time>
      </trkpt>
      <trkpt lat="48.71091" lon="7.19421">
        <ele>329.6</ele>
        <time>2023-11-23T10:51:53Z</time>
      </trkpt>
      <trkpt lat="48.71108" lon="7.19424">
        <ele>334.8</ele>
        <time>2023-11-23T10:52:04Z</time>
      </trkpt>
      <trkpt lat="48.71127" lon="7.19421">
        <ele>341.2</ele>
        <time>2023-11-23T10:52:18Z</time>
      </trkpt>
      <trkpt lat="48.71147" lon="7.1942">
        <ele>346.5</ele>
        <time>2023-11-23T10:52:28Z</time>
      </trkpt>
      <trkpt lat="48.71163" lon="7.19417">
        <ele>350.4</ele>
        <time>2023-11-23T10:52:36Z</time>
      </trkpt>
      <trkpt lat="48.71169" lon="7.19418">
        <ele>351.5</ele>
        <time>2023-11-23T10:52:39Z</time>
      </trkpt>
      <trkpt lat="48.71169" lon="7.19421">
        <ele>351.2</ele>
        <time>2023-11-23T10:52:43Z</time>
      </trkpt>
      <trkpt lat="48.7115" lon="7.19423">
        <ele>347.9</ele>
        <time>2023-11-23T10:52:54Z</time>
      </trkpt>
      <trkpt lat="48.71131" lon="7.19425">
        <ele>341.6</ele>
        <time>2023-11-23T10:53:03Z</time>
      </trkpt>
      <trkpt lat="48.71112" lon="7.19426">
        <ele>335.4</ele>
        <time>2023-11-23T10:53:12Z</time>
      </trkpt>
      <trkpt lat="48.71094" lon="7.1942">
        <ele>330.4</ele>
        <time>2023-11-23T10:53:21Z</time>
      </trkpt>
      <trkpt lat="48.71092" lon="7.19419">
        <ele>329.8</ele>
        <time>2023-11-23T10:53:23Z</time>
      </trkpt>
      <trkpt lat="48.71093" lon="7.1942">
        <ele>330.4</ele>
        <time>2023-11-23T10:53:25Z</time>
      </trkpt>
      <trkpt lat="48.71112" lon="7.19421">
        <ele>335.7</ele>
        <time>2023-11-23T10:53:38Z</time>
      </trkpt>
      <trkpt lat="48.71131" lon="7.19417">
        <ele>342.5</ele>
        <time>2023-11-23T10:53:49Z</time>
      </trkpt>
      <trkpt lat="48.7115" lon="7.19423">
        <ele>347.9</ele>
        <time>2023-11-23T10:53:58Z</time>
      </trkpt>
      <trkpt lat="48.71168" lon="7.19419">
        <ele>351.5</ele>
        <time>2023-11-23T10:54:07Z</time>
      </trkpt>
      <trkpt lat="48.7117" lon="7.19418">
        <ele>352</ele>
        <time>2023-11-23T10:54:08Z</time>
      </trkpt>
      <trkpt lat="48.71185" lon="7.19434">
        <ele>353.7</ele>
        <time>2023-11-23T10:54:17Z</time>
      </trkpt>
      <trkpt lat="48.71193" lon="7.19461">
        <ele>354.7</ele>
        <time>2023-11-23T10:54:26Z</time>
      </trkpt>
      <trkpt lat="48.71199" lon="7.1949">
        <ele>355.1</ele>
        <time>2023-11-23T10:54:36Z</time>
      </trkpt>
      <trkpt lat="48.71202" lon="7.19518">
        <ele>355.8</ele>
        <time>2023-11-23T10:54:46Z</time>
      </trkpt>
      <trkpt lat="48.71202" lon="7.19545">
        <ele>355.8</ele>
        <time>2023-11-23T10:54:57Z</time>
      </trkpt>
      <trkpt lat="48.71204" lon="7.19563">
        <ele>356.1</ele>
        <time>2023-11-23T10:55:04Z</time>
      </trkpt>
      <trkpt lat="48.71204" lon="7.19593">
        <ele>356.2</ele>
        <time>2023-11-23T10:55:13Z</time>
      </trkpt>
      <trkpt lat="48.71203" lon="7.19622">
        <ele>356.9</ele>
        <time>2023-11-23T10:55:20Z</time>
      </trkpt>
      <trkpt lat="48.71201" lon="7.19651">
        <ele>357</ele>
        <time>2023-11-23T10:55:28Z</time>
      </trkpt>
      <trkpt lat="48.71201" lon="7.19681">
        <ele>357.2</ele>
        <time>2023-11-23T10:55:37Z</time>
      </trkpt>
      <trkpt lat="48.71204" lon="7.1971">
        <ele>358.5</ele>
        <time>2023-11-23T10:55:44Z</time>
      </trkpt>
      <trkpt lat="48.71207" lon="7.19738">
        <ele>360.4</ele>
        <time>2023-11-23T10:55:50Z</time>
      </trkpt>
      <trkpt lat="48.71212" lon="7.19766">
        <ele>361.8</ele>
        <time>2023-11-23T10:55:57Z</time>
      </trkpt>
      <trkpt lat="48.71219" lon="7.19792">
        <ele>363.2</ele>
        <time>2023-11-23T10:56:04Z</time>
      </trkpt>
      <trkpt lat="48.71225" lon="7.19818">
        <ele>363.8</ele>
        <time>2023-11-23T10:56:10Z</time>
      </trkpt>
      <trkpt lat="48.71234" lon="7.19843">
        <ele>364.3</ele>
        <time>2023-11-23T10:56:17Z</time>
      </trkpt>
      <trkpt lat="48.71249" lon="7.1986">
        <ele>364.4</ele>
        <time>2023-11-23T10:56:25Z</time>
      </trkpt>
      <trkpt lat="48.71267" lon="7.19872">
        <ele>364.3</ele>
        <time>2023-11-23T10:56:34Z</time>
      </trkpt>
      <trkpt lat="48.71285" lon="7.1987">
        <ele>365.7</ele>
        <time>2023-11-23T10:56:47Z</time>
      </trkpt>
      <trkpt lat="48.71303" lon="7.19874">
        <ele>366.9</ele>
        <time>2023-11-23T10:57:00Z</time>
      </trkpt>
      <trkpt lat="48.71306" lon="7.19874">
        <ele>367.2</ele>
        <time>2023-11-23T10:57:02Z</time>
      </trkpt>
      <trkpt lat="48.71322" lon="7.19855">
        <ele>368.5</ele>
        <time>2023-11-23T10:57:12Z</time>
      </trkpt>
      <trkpt lat="48.71338" lon="7.19839">
        <ele>369.3</ele>
        <time>2023-11-23T10:57:20Z</time>
      </trkpt>
      <trkpt lat="48.71349" lon="7.19834">
        <ele>369.8</ele>
        <time>2023-11-23T10:57:26Z</time>
      </trkpt>
      <trkpt lat="48.71368" lon="7.19835">
        <ele>370.9</ele>
        <time>2023-11-23T10:57:35Z</time>
      </trkpt>
      <trkpt lat="48.71382" lon="7.19815">
        <ele>372</ele>
        <time>2023-11-23T10:57:42Z</time>
      </trkpt>
      <trkpt lat="48.7139" lon="7.19788">
        <ele>373.3</ele>
        <time>2023-11-23T10:57:50Z</time>
      </trkpt>
      <trkpt lat="48.71396" lon="7.1976">
        <ele>374.7</ele>
        <time>2023-11-23T10:57:58Z</time>
      </trkpt>
      <trkpt lat="48.71405" lon="7.19734">
        <ele>375.8</ele>
        <time>2023-11-23T10:58:06Z</time>
      </trkpt>
      <trkpt lat="48.71418" lon="7.19713">
        <ele>376.8</ele>
        <time>2023-11-23T10:58:14Z</time>
      </trkpt>
      <trkpt lat="48.71431" lon="7.19691">
        <ele>377.8</ele>
        <time>2023-11-23T10:58:22Z</time>
      </trkpt>
      <trkpt lat="48.71445" lon="7.19669">
        <ele>379</ele>
        <time>2023-11-23T10:58:31Z</time>
      </trkpt>
      <trkpt lat="48.71451" lon="7.19643">
        <ele>379.4</ele>
        <time>2023-11-23T10:58:38Z</time>
      </trkpt>
      <trkpt lat="48.71454" lon="7.19614">
        <ele>379.4</ele>
        <time>2023-11-23T10:58:45Z</time>
      </trkpt>
      <trkpt lat="48.7146" lon="7.19584">
        <ele>379.1</ele>
        <time>2023-11-23T10:58:52Z</time>
      </trkpt>
      <trkpt lat="48.71466" lon="7.19557">
        <ele>378.7</ele>
        <time>2023-11-23T10:58:59Z</time>
      </trkpt>
      <trkpt lat="48.71472" lon="7.19529">
        <ele>378.3</ele>
        <time>2023-11-23T10:59:07Z</time>
      </trkpt>
      <trkpt lat="48.71476" lon="7.19502">
        <ele>377.9</ele>
        <time>2023-11-23T10:59:14Z</time>
      </trkpt>
      <trkpt lat="48.7148" lon="7.19471">
        <ele>377.3</ele>
        <time>2023-11-23T10:59:21Z</time>
      </trkpt>
      <trkpt lat="48.71484" lon="7.19444">
        <ele>376.6</ele>
        <time>2023-11-23T10:59:27Z</time>
      </trkpt>
      <trkpt lat="48.71488" lon="7.19415">
        <ele>375.9</ele>
        <time>2023-11-23T10:59:33Z</time>
      </trkpt>
      <trkpt lat="48.71486" lon="7.19386">
        <ele>375.1</ele>
        <time>2023-11-23T10:59:39Z</time>
      </trkpt>
      <trkpt lat="48.71484" lon="7.19358">
        <ele>374.2</ele>
        <time>2023-11-23T10:59:45Z</time>
      </trkpt>
      <trkpt lat="48.71482" lon="7.19328">
        <ele>373.1</ele>
        <time>2023-11-23T10:59:51Z</time>
      </trkpt>
      <trkpt lat="48.71481" lon="7.19298">
        <ele>372</ele>
        <time>2023-11-23T10:59:57Z</time>
      </trkpt>
      <trkpt lat="48.7148" lon="7.1927">
        <ele>370.9</ele>
        <time>2023-11-23T11:00:03Z</time>
      </trkpt>
      <trkpt lat="48.7148" lon="7.19242">
        <ele>369.9</ele>
        <time>2023-11-23T11:00:09Z</time>
      </trkpt>
      <trkpt lat="48.71479" lon="7.19214">
        <ele>368.8</ele>
        <time>2023-11-23T11:00:15Z</time>
      </trkpt>
      <trkpt lat="48.71479" lon="7.19184">
        <ele>367.5</ele>
        <time>2023-11-23T11:00:21Z</time>
      </trkpt>
      <trkpt lat="48.71479" lon="7.19155">
        <ele>366.8</ele>
        <time>2023-11-23T11:00:27Z</time>
      </trkpt>
      <trkpt lat="48.71478" lon="7.19127">
        <ele>366.4</ele>
        <time>2023-11-23T11:00:33Z</time>
      </trkpt>
      <trkpt lat="48.71478" lon="7.19097">
        <ele>365.8</ele>
        <time>2023-11-23T11:00:39Z</time>
      </trkpt>
      <trkpt lat="48.71479" lon="7.1907">
        <ele>365.3</ele>
        <time>2023-11-23T11:00:45Z</time>
      </trkpt>
      <trkpt lat="48.71479" lon="7.19042">
        <ele>364.7</ele>
        <time>2023-11-23T11:00:51Z</time>
      </trkpt>
      <trkpt lat="48.71481" lon="7.19013">
        <ele>364.3</ele>
        <time>2023-11-23T11:00:57Z</time>
      </trkpt>
      <trkpt lat="48.71487" lon="7.18985">
        <ele>364</ele>
        <time>2023-11-23T11:01:03Z</time>
      </trkpt>
      <trkpt lat="48.71503" lon="7.1897">
        <ele>363.8</ele>
        <time>2023-11-23T11:01:08Z</time>
      </trkpt>
      <trkpt lat="48.7152" lon="7.18954">
        <ele>363.6</ele>
        <time>2023-11-23T11:01:14Z</time>
      </trkpt>
      <trkpt lat="48.71538" lon="7.1894">
        <ele>363.3</ele>
        <time>2023-11-23T11:01:20Z</time>
      </trkpt>
      <trkpt lat="48.71554" lon="7.18926">
        <ele>363.1</ele>
        <time>2023-11-23T11:01:26Z</time>
      </trkpt>
      <trkpt lat="48.71569" lon="7.1891">
        <ele>362.9</ele>
        <time>2023-11-23T11:01:32Z</time>
      </trkpt>
      <trkpt lat="48.71586" lon="7.18892">
        <ele>362.7</ele>
        <time>2023-11-23T11:01:39Z</time>
      </trkpt>
      <trkpt lat="48.71605" lon="7.18878">
        <ele>362.6</ele>
        <time>2023-11-23T11:01:46Z</time>
      </trkpt>
      <trkpt lat="48.71608" lon="7.18881">
        <ele>362.6</ele>
        <time>2023-11-23T11:01:47Z</time>
      </trkpt>
      <trkpt lat="48.7162" lon="7.18905">
        <ele>362.6</ele>
        <time>2023-11-23T11:01:53Z</time>
      </trkpt>
      <trkpt lat="48.71632" lon="7.18931">
        <ele>362.6</ele>
        <time>2023-11-23T11:02:00Z</time>
      </trkpt>
      <trkpt lat="48.71646" lon="7.18949">
        <ele>362.4</ele>
        <time>2023-11-23T11:02:06Z</time>
      </trkpt>
      <trkpt lat="48.71659" lon="7.1897">
        <ele>362.3</ele>
        <time>2023-11-23T11:02:12Z</time>
      </trkpt>
      <trkpt lat="48.71671" lon="7.1899">
        <ele>362.1</ele>
        <time>2023-11-23T11:02:18Z</time>
      </trkpt>
      <trkpt lat="48.71685" lon="7.19014">
        <ele>361.6</ele>
        <time>2023-11-23T11:02:25Z</time>
      </trkpt>
      <trkpt lat="48.71697" lon="7.19038">
        <ele>361</ele>
        <time>2023-11-23T11:02:32Z</time>
      </trkpt>
      <trkpt lat="48.71709" lon="7.19063">
        <ele>360.3</ele>
        <time>2023-11-23T11:02:39Z</time>
      </trkpt>
      <trkpt lat="48.71722" lon="7.19087">
        <ele>359.6</ele>
        <time>2023-11-23T11:02:46Z</time>
      </trkpt>
      <trkpt lat="48.71733" lon="7.19111">
        <ele>358.8</ele>
        <time>2023-11-23T11:02:53Z</time>
      </trkpt>
      <trkpt lat="48.71743" lon="7.19136">
        <ele>357.7</ele>
        <time>2023-11-23T11:03:00Z</time>
      </trkpt>
      <trkpt lat="48.71753" lon="7.19164">
        <ele>356.4</ele>
        <time>2023-11-23T11:03:07Z</time>
      </trkpt>
      <trkpt lat="48.71763" lon="7.19188">
        <ele>354.9</ele>
        <time>2023-11-23T11:03:13Z</time>
      </trkpt>
      <trkpt lat="48.71773" lon="7.19211">
        <ele>353.3</ele>
        <time>2023-11-23T11:03:19Z</time>
      </trkpt>
      <trkpt lat="48.71786" lon="7.19235">
        <ele>351.3</ele>
        <time>2023-11-23T11:03:26Z</time>
      </trkpt>
      <trkpt lat="48.71797" lon="7.19259">
        <ele>349.5</ele>
        <time>2023-11-23T11:03:33Z</time>
      </trkpt>
      <trkpt lat="48.71808" lon="7.19284">
        <ele>347.8</ele>
        <time>2023-11-23T11:03:40Z</time>
      </trkpt>
      <trkpt lat="48.71819" lon="7.19309">
        <ele>346.3</ele>
        <time>2023-11-23T11:03:47Z</time>
      </trkpt>
      <trkpt lat="48.71829" lon="7.1933">
        <ele>345.3</ele>
        <time>2023-11-23T11:03:54Z</time>
      </trkpt>
      <trkpt lat="48.71845" lon="7.19312">
        <ele>344.1</ele>
        <time>2023-11-23T11:04:00Z</time>
      </trkpt>
      <trkpt lat="48.71865" lon="7.19304">
        <ele>343.2</ele>
        <time>2023-11-23T11:04:06Z</time>
      </trkpt>
      <trkpt lat="48.71883" lon="7.19297">
        <ele>342.8</ele>
        <time>2023-11-23T11:04:12Z</time>
      </trkpt>
      <trkpt lat="48.71903" lon="7.19291">
        <ele>342.4</ele>
        <time>2023-11-23T11:04:19Z</time>
      </trkpt>
      <trkpt lat="48.71914" lon="7.19269">
        <ele>343.1</ele>
        <time>2023-11-23T11:04:26Z</time>
      </trkpt>
      <trkpt lat="48.71917" lon="7.19238">
        <ele>343.9</ele>
        <time>2023-11-23T11:04:34Z</time>
      </trkpt>
      <trkpt lat="48.71915" lon="7.1921">
        <ele>344.6</ele>
        <time>2023-11-23T11:04:41Z</time>
      </trkpt>
      <trkpt lat="48.71913" lon="7.19181">
        <ele>345.4</ele>
        <time>2023-11-23T11:04:48Z</time>
      </trkpt>
      <trkpt lat="48.71909" lon="7.19154">
        <ele>346</ele>
        <time>2023-11-23T11:04:55Z</time>
      </trkpt>
      <trkpt lat="48.71902" lon="7.19126">
        <ele>346.6</ele>
        <time>2023-11-23T11:05:02Z</time>
      </trkpt>
      <trkpt lat="48.71893" lon="7.19098">
        <ele>347.1</ele>
        <time>2023-11-23T11:05:09Z</time>
      </trkpt>
      <trkpt lat="48.71883" lon="7.19072">
        <ele>347.7</ele>
        <time>2023-11-23T11:05:16Z</time>
      </trkpt>
      <trkpt lat="48.71872" lon="7.19048">
        <ele>348.3</ele>
        <time>2023-11-23T11:05:23Z</time>
      </trkpt>
      <trkpt lat="48.71861" lon="7.19025">
        <ele>348.7</ele>
        <time>2023-11-23T11:05:30Z</time>
      </trkpt>
      <trkpt lat="48.71849" lon="7.18999">
        <ele>349.1</ele>
        <time>2023-11-23T11:05:37Z</time>
      </trkpt>
      <trkpt lat="48.7184" lon="7.18974">
        <ele>349.4</ele>
        <time>2023-11-23T11:05:43Z</time>
      </trkpt>
      <trkpt lat="48.71833" lon="7.18946">
        <ele>349.6</ele>
        <time>2023-11-23T11:05:50Z</time>
      </trkpt>
      <trkpt lat="48.71825" lon="7.18918">
        <ele>349.8</ele>
        <time>2023-11-23T11:05:57Z</time>
      </trkpt>
      <trkpt lat="48.71818" lon="7.1889">
        <ele>349.9</ele>
        <time>2023-11-23T11:06:04Z</time>
      </trkpt>
      <trkpt lat="48.7181" lon="7.18861">
        <ele>350</ele>
        <time>2023-11-23T11:06:11Z</time>
      </trkpt>
      <trkpt lat="48.71804" lon="7.18831">
        <ele>350</ele>
        <time>2023-11-23T11:06:18Z</time>
      </trkpt>
      <trkpt lat="48.71799" lon="7.18804">
        <ele>349.8</ele>
        <time>2023-11-23T11:06:24Z</time>
      </trkpt>
      <trkpt lat="48.71793" lon="7.18778">
        <ele>349.6</ele>
        <time>2023-11-23T11:06:30Z</time>
      </trkpt>
      <trkpt lat="48.71786" lon="7.18751">
        <ele>349.5</ele>
        <time>2023-11-23T11:06:37Z</time>
      </trkpt>
      <trkpt lat="48.71776" lon="7.18723">
        <ele>349.5</ele>
        <time>2023-11-23T11:06:44Z</time>
      </trkpt>
      <trkpt lat="48.71769" lon="7.18694">
        <ele>349.3</ele>
        <time>2023-11-23T11:06:51Z</time>
      </trkpt>
      <trkpt lat="48.71766" lon="7.18666">
        <ele>348.8</ele>
        <time>2023-11-23T11:06:57Z</time>
      </trkpt>
      <trkpt lat="48.71762" lon="7.18637">
        <ele>348.3</ele>
        <time>2023-11-23T11:07:03Z</time>
      </trkpt>
      <trkpt lat="48.71761" lon="7.18606">
        <ele>347.7</ele>
        <time>2023-11-23T11:07:10Z</time>
      </trkpt>
      <trkpt lat="48.71761" lon="7.18576">
        <ele>347.2</ele>
        <time>2023-11-23T11:07:17Z</time>
      </trkpt>
      <trkpt lat="48.71761" lon="7.18549">
        <ele>346.7</ele>
        <time>2023-11-23T11:07:23Z</time>
      </trkpt>
      <trkpt lat="48.71761" lon="7.18519">
        <ele>346</ele>
        <time>2023-11-23T11:07:29Z</time>
      </trkpt>
      <trkpt lat="48.71761" lon="7.18489">
        <ele>345.3</ele>
        <time>2023-11-23T11:07:35Z</time>
      </trkpt>
      <trkpt lat="48.71763" lon="7.18462">
        <ele>344.7</ele>
        <time>2023-11-23T11:07:41Z</time>
      </trkpt>
      <trkpt lat="48.7177" lon="7.18432">
        <ele>344.2</ele>
        <time>2023-11-23T11:07:48Z</time>
      </trkpt>
      <trkpt lat="48.71776" lon="7.18405">
        <ele>343.9</ele>
        <time>2023-11-23T11:07:54Z</time>
      </trkpt>
      <trkpt lat="48.71781" lon="7.18376">
        <ele>343.6</ele>
        <time>2023-11-23T11:08:00Z</time>
      </trkpt>
      <trkpt lat="48.71784" lon="7.18347">
        <ele>343.5</ele>
        <time>2023-11-23T11:08:06Z</time>
      </trkpt>
      <trkpt lat="48.71786" lon="7.18319">
        <ele>343.5</ele>
        <time>2023-11-23T11:08:12Z</time>
      </trkpt>
      <trkpt lat="48.71789" lon="7.18291">
        <ele>343.6</ele>
        <time>2023-11-23T11:08:18Z</time>
      </trkpt>
      <trkpt lat="48.71792" lon="7.18261">
        <ele>343.8</ele>
        <time>2023-11-23T11:08:25Z</time>
      </trkpt>
      <trkpt lat="48.71799" lon="7.18234">
        <ele>344.1</ele>
        <time>2023-11-23T11:08:32Z</time>
      </trkpt>
      <trkpt lat="48.71806" lon="7.18206">
        <ele>344.3</ele>
        <time>2023-11-23T11:08:39Z</time>
      </trkpt>
      <trkpt lat="48.71812" lon="7.18177">
        <ele>344.4</ele>
        <time>2023-11-23T11:08:46Z</time>
      </trkpt>
      <trkpt lat="48.71818" lon="7.18148">
        <ele>344.2</ele>
        <time>2023-11-23T11:08:53Z</time>
      </trkpt>
      <trkpt lat="48.71824" lon="7.18118">
        <ele>343.6</ele>
        <time>2023-11-23T11:09:00Z</time>
      </trkpt>
      <trkpt lat="48.71827" lon="7.18091">
        <ele>343</ele>
        <time>2023-11-23T11:09:06Z</time>
      </trkpt>
      <trkpt lat="48.7183" lon="7.18063">
        <ele>342.2</ele>
        <time>2023-11-23T11:09:12Z</time>
      </trkpt>
      <trkpt lat="48.71834" lon="7.18032">
        <ele>341.3</ele>
        <time>2023-11-23T11:09:19Z</time>
      </trkpt>
      <trkpt lat="48.71836" lon="7.18004">
        <ele>340.3</ele>
        <time>2023-11-23T11:09:25Z</time>
      </trkpt>
      <trkpt lat="48.71838" lon="7.17976">
        <ele>339.3</ele>
        <time>2023-11-23T11:09:31Z</time>
      </trkpt>
      <trkpt lat="48.7184" lon="7.17948">
        <ele>338.4</ele>
        <time>2023-11-23T11:09:37Z</time>
      </trkpt>
      <trkpt lat="48.71842" lon="7.1792">
        <ele>337.5</ele>
        <time>2023-11-23T11:09:43Z</time>
      </trkpt>
      <trkpt lat="48.71844" lon="7.17892">
        <ele>336.7</ele>
        <time>2023-11-23T11:09:49Z</time>
      </trkpt>
      <trkpt lat="48.71846" lon="7.17864">
        <ele>335.7</ele>
        <time>2023-11-23T11:09:55Z</time>
      </trkpt>
      <trkpt lat="48.71849" lon="7.17834">
        <ele>334.7</ele>
        <time>2023-11-23T11:10:02Z</time>
      </trkpt>
      <trkpt lat="48.71853" lon="7.17803">
        <ele>333.7</ele>
        <time>2023-11-23T11:10:09Z</time>
      </trkpt>
      <trkpt lat="48.71856" lon="7.17776">
        <ele>332.8</ele>
        <time>2023-11-23T11:10:15Z</time>
      </trkpt>
      <trkpt lat="48.71857" lon="7.17747">
        <ele>331.9</ele>
        <time>2023-11-23T11:10:21Z</time>
      </trkpt>
      <trkpt lat="48.71858" lon="7.17719">
        <ele>330.9</ele>
        <time>2023-11-23T11:10:27Z</time>
      </trkpt>
      <trkpt lat="48.71857" lon="7.17691">
        <ele>329.8</ele>
        <time>2023-11-23T11:10:33Z</time>
      </trkpt>
      <trkpt lat="48.71856" lon="7.17663">
        <ele>328.6</ele>
        <time>2023-11-23T11:10:39Z</time>
      </trkpt>
      <trkpt lat="48.71854" lon="7.17632">
        <ele>327.1</ele>
        <time>2023-11-23T11:10:45Z</time>
      </trkpt>
      <trkpt lat="48.71852" lon="7.17603">
        <ele>325.6</ele>
        <time>2023-11-23T11:10:51Z</time>
      </trkpt>
      <trkpt lat="48.71852" lon="7.17573">
        <ele>324.2</ele>
        <time>2023-11-23T11:10:57Z</time>
      </trkpt>
      <trkpt lat="48.71852" lon="7.17543">
        <ele>322.8</ele>
        <time>2023-11-23T11:11:03Z</time>
      </trkpt>
      <trkpt lat="48.71853" lon="7.17513">
        <ele>321.5</ele>
        <time>2023-11-23T11:11:09Z</time>
      </trkpt>
      <trkpt lat="48.71855" lon="7.17484">
        <ele>320.2</ele>
        <time>2023-11-23T11:11:15Z</time>
      </trkpt>
      <trkpt lat="48.71856" lon="7.17452">
        <ele>318.9</ele>
        <time>2023-11-23T11:11:21Z</time>
      </trkpt>
      <trkpt lat="48.71856" lon="7.17423">
        <ele>317.4</ele>
        <time>2023-11-23T11:11:27Z</time>
      </trkpt>
      <trkpt lat="48.71857" lon="7.17394">
        <ele>316.5</ele>
        <time>2023-11-23T11:11:33Z</time>
      </trkpt>
      <trkpt lat="48.71847" lon="7.17371">
        <ele>315.2</ele>
        <time>2023-11-23T11:11:40Z</time>
      </trkpt>
      <trkpt lat="48.71833" lon="7.17351">
        <ele>313.6</ele>
        <time>2023-11-23T11:11:46Z</time>
      </trkpt>
      <trkpt lat="48.71821" lon="7.17328">
        <ele>311.5</ele>
        <time>2023-11-23T11:11:52Z</time>
      </trkpt>
      <trkpt lat="48.71813" lon="7.173">
        <ele>309.5</ele>
        <time>2023-11-23T11:11:59Z</time>
      </trkpt>
      <trkpt lat="48.71819" lon="7.17273">
        <ele>308.4</ele>
        <time>2023-11-23T11:12:05Z</time>
      </trkpt>
      <trkpt lat="48.71836" lon="7.17256">
        <ele>307.3</ele>
        <time>2023-11-23T11:12:11Z</time>
      </trkpt>
      <trkpt lat="48.71855" lon="7.17243">
        <ele>306.5</ele>
        <time>2023-11-23T11:12:17Z</time>
      </trkpt>
      <trkpt lat="48.71874" lon="7.17231">
        <ele>305.5</ele>
        <time>2023-11-23T11:12:24Z</time>
      </trkpt>
      <trkpt lat="48.71892" lon="7.17225">
        <ele>304.7</ele>
        <time>2023-11-23T11:12:30Z</time>
      </trkpt>
      <trkpt lat="48.71912" lon="7.17217">
        <ele>303.7</ele>
        <time>2023-11-23T11:12:36Z</time>
      </trkpt>
      <trkpt lat="48.71929" lon="7.17207">
        <ele>302.9</ele>
        <time>2023-11-23T11:12:41Z</time>
      </trkpt>
      <trkpt lat="48.71948" lon="7.17196">
        <ele>301.8</ele>
        <time>2023-11-23T11:12:47Z</time>
      </trkpt>
      <trkpt lat="48.71966" lon="7.17185">
        <ele>301.1</ele>
        <time>2023-11-23T11:12:53Z</time>
      </trkpt>
      <trkpt lat="48.71985" lon="7.17178">
        <ele>300.5</ele>
        <time>2023-11-23T11:12:59Z</time>
      </trkpt>
      <trkpt lat="48.72004" lon="7.17175">
        <ele>300</ele>
        <time>2023-11-23T11:13:06Z</time>
      </trkpt>
      <trkpt lat="48.72023" lon="7.17173">
        <ele>299.7</ele>
        <time>2023-11-23T11:13:13Z</time>
      </trkpt>
      <trkpt lat="48.72043" lon="7.1717">
        <ele>299.5</ele>
        <time>2023-11-23T11:13:20Z</time>
      </trkpt>
      <trkpt lat="48.72061" lon="7.17168">
        <ele>299.6</ele>
        <time>2023-11-23T11:13:26Z</time>
      </trkpt>
      <trkpt lat="48.72081" lon="7.17158">
        <ele>299.9</ele>
        <time>2023-11-23T11:13:33Z</time>
      </trkpt>
      <trkpt lat="48.72098" lon="7.17143">
        <ele>300.6</ele>
        <time>2023-11-23T11:13:40Z</time>
      </trkpt>
      <trkpt lat="48.72112" lon="7.17126">
        <ele>301.1</ele>
        <time>2023-11-23T11:13:47Z</time>
      </trkpt>
      <trkpt lat="48.72124" lon="7.17105">
        <ele>301.2</ele>
        <time>2023-11-23T11:13:54Z</time>
      </trkpt>
      <trkpt lat="48.72128" lon="7.17075">
        <ele>300.8</ele>
        <time>2023-11-23T11:14:02Z</time>
      </trkpt>
      <trkpt lat="48.72127" lon="7.17045">
        <ele>299.9</ele>
        <time>2023-11-23T11:14:10Z</time>
      </trkpt>
      <trkpt lat="48.72123" lon="7.17017">
        <ele>298.9</ele>
        <time>2023-11-23T11:14:17Z</time>
      </trkpt>
      <trkpt lat="48.72121" lon="7.16986">
        <ele>297.8</ele>
        <time>2023-11-23T11:14:24Z</time>
      </trkpt>
      <trkpt lat="48.72118" lon="7.16956">
        <ele>296.6</ele>
        <time>2023-11-23T11:14:31Z</time>
      </trkpt>
      <trkpt lat="48.72116" lon="7.16927">
        <ele>295.5</ele>
        <time>2023-11-23T11:14:38Z</time>
      </trkpt>
      <trkpt lat="48.72117" lon="7.169">
        <ele>294.5</ele>
        <time>2023-11-23T11:14:45Z</time>
      </trkpt>
      <trkpt lat="48.7211" lon="7.16872">
        <ele>293.5</ele>
        <time>2023-11-23T11:14:52Z</time>
      </trkpt>
      <trkpt lat="48.72104" lon="7.16847">
        <ele>292.8</ele>
        <time>2023-11-23T11:14:58Z</time>
      </trkpt>
      <trkpt lat="48.72096" lon="7.16821">
        <ele>292.4</ele>
        <time>2023-11-23T11:15:05Z</time>
      </trkpt>
      <trkpt lat="48.72086" lon="7.16798">
        <ele>292.2</ele>
        <time>2023-11-23T11:15:11Z</time>
      </trkpt>
      <trkpt lat="48.72075" lon="7.16773">
        <ele>292.1</ele>
        <time>2023-11-23T11:15:18Z</time>
      </trkpt>
      <trkpt lat="48.72062" lon="7.16748">
        <ele>291.9</ele>
        <time>2023-11-23T11:15:25Z</time>
      </trkpt>
      <trkpt lat="48.72051" lon="7.16726">
        <ele>291.8</ele>
        <time>2023-11-23T11:15:32Z</time>
      </trkpt>
      <trkpt lat="48.72039" lon="7.16702">
        <ele>292</ele>
        <time>2023-11-23T11:15:39Z</time>
      </trkpt>
      <trkpt lat="48.72028" lon="7.16681">
        <ele>292.2</ele>
        <time>2023-11-23T11:15:46Z</time>
      </trkpt>
      <trkpt lat="48.72016" lon="7.16661">
        <ele>292.4</ele>
        <time>2023-11-23T11:15:53Z</time>
      </trkpt>
      <trkpt lat="48.72002" lon="7.16639">
        <ele>292.8</ele>
        <time>2023-11-23T11:16:00Z</time>
      </trkpt>
      <trkpt lat="48.71987" lon="7.1662">
        <ele>293.2</ele>
        <time>2023-11-23T11:16:07Z</time>
      </trkpt>
      <trkpt lat="48.71973" lon="7.16602">
        <ele>293.7</ele>
        <time>2023-11-23T11:16:14Z</time>
      </trkpt>
      <trkpt lat="48.71958" lon="7.16582">
        <ele>294.3</ele>
        <time>2023-11-23T11:16:21Z</time>
      </trkpt>
      <trkpt lat="48.71943" lon="7.16563">
        <ele>294.8</ele>
        <time>2023-11-23T11:16:28Z</time>
      </trkpt>
      <trkpt lat="48.71927" lon="7.16547">
        <ele>295.2</ele>
        <time>2023-11-23T11:16:35Z</time>
      </trkpt>
      <trkpt lat="48.71909" lon="7.16531">
        <ele>295.6</ele>
        <time>2023-11-23T11:16:42Z</time>
      </trkpt>
      <trkpt lat="48.71893" lon="7.16518">
        <ele>296</ele>
        <time>2023-11-23T11:16:48Z</time>
      </trkpt>
      <trkpt lat="48.71876" lon="7.16506">
        <ele>296.3</ele>
        <time>2023-11-23T11:16:55Z</time>
      </trkpt>
      <trkpt lat="48.7186" lon="7.16492">
        <ele>296.7</ele>
        <time>2023-11-23T11:17:02Z</time>
      </trkpt>
      <trkpt lat="48.71844" lon="7.16476">
        <ele>297.1</ele>
        <time>2023-11-23T11:17:09Z</time>
      </trkpt>
      <trkpt lat="48.71826" lon="7.16463">
        <ele>297.5</ele>
        <time>2023-11-23T11:17:16Z</time>
      </trkpt>
      <trkpt lat="48.71808" lon="7.16449">
        <ele>297.8</ele>
        <time>2023-11-23T11:17:23Z</time>
      </trkpt>
      <trkpt lat="48.71792" lon="7.16436">
        <ele>298.1</ele>
        <time>2023-11-23T11:17:29Z</time>
      </trkpt>
      <trkpt lat="48.71774" lon="7.16426">
        <ele>298</ele>
        <time>2023-11-23T11:17:35Z</time>
      </trkpt>
      <trkpt lat="48.71755" lon="7.16419">
        <ele>298.1</ele>
        <time>2023-11-23T11:17:42Z</time>
      </trkpt>
      <trkpt lat="48.71736" lon="7.16417">
        <ele>298.4</ele>
        <time>2023-11-23T11:17:49Z</time>
      </trkpt>
      <trkpt lat="48.71717" lon="7.16412">
        <ele>298.7</ele>
        <time>2023-11-23T11:17:56Z</time>
      </trkpt>
      <trkpt lat="48.71697" lon="7.16407">
        <ele>299.1</ele>
        <time>2023-11-23T11:18:03Z</time>
      </trkpt>
      <trkpt lat="48.7168" lon="7.164">
        <ele>299.4</ele>
        <time>2023-11-23T11:18:09Z</time>
      </trkpt>
      <trkpt lat="48.7166" lon="7.16392">
        <ele>299.9</ele>
        <time>2023-11-23T11:18:16Z</time>
      </trkpt>
      <trkpt lat="48.7164" lon="7.16385">
        <ele>300.5</ele>
        <time>2023-11-23T11:18:23Z</time>
      </trkpt>
      <trkpt lat="48.7162" lon="7.1638">
        <ele>301</ele>
        <time>2023-11-23T11:18:30Z</time>
      </trkpt>
      <trkpt lat="48.71601" lon="7.16377">
        <ele>301.5</ele>
        <time>2023-11-23T11:18:37Z</time>
      </trkpt>
      <trkpt lat="48.71581" lon="7.16375">
        <ele>302.1</ele>
        <time>2023-11-23T11:18:44Z</time>
      </trkpt>
      <trkpt lat="48.7156" lon="7.16374">
        <ele>302.4</ele>
        <time>2023-11-23T11:18:51Z</time>
      </trkpt>
      <trkpt lat="48.7154" lon="7.16377">
        <ele>302.9</ele>
        <time>2023-11-23T11:18:58Z</time>
      </trkpt>
      <trkpt lat="48.7152" lon="7.16385">
        <ele>303.6</ele>
        <time>2023-11-23T11:19:05Z</time>
      </trkpt>
      <trkpt lat="48.71502" lon="7.16398">
        <ele>304.4</ele>
        <time>2023-11-23T11:19:13Z</time>
      </trkpt>
      <trkpt lat="48.71482" lon="7.16407">
        <ele>305.2</ele>
        <time>2023-11-23T11:19:20Z</time>
      </trkpt>
      <trkpt lat="48.71462" lon="7.16408">
        <ele>306.2</ele>
        <time>2023-11-23T11:19:27Z</time>
      </trkpt>
      <trkpt lat="48.71442" lon="7.16409">
        <ele>307.3</ele>
        <time>2023-11-23T11:19:34Z</time>
      </trkpt>
      <trkpt lat="48.71424" lon="7.16405">
        <ele>308.3</ele>
        <time>2023-11-23T11:19:41Z</time>
      </trkpt>
      <trkpt lat="48.71404" lon="7.16398">
        <ele>309.3</ele>
        <time>2023-11-23T11:19:49Z</time>
      </trkpt>
      <trkpt lat="48.71385" lon="7.16392">
        <ele>310.1</ele>
        <time>2023-11-23T11:19:56Z</time>
      </trkpt>
      <trkpt lat="48.71367" lon="7.16384">
        <ele>310.7</ele>
        <time>2023-11-23T11:20:03Z</time>
      </trkpt>
      <trkpt lat="48.71349" lon="7.1638">
        <ele>311.2</ele>
        <time>2023-11-23T11:20:11Z</time>
      </trkpt>
      <trkpt lat="48.71332" lon="7.16371">
        <ele>311.4</ele>
        <time>2023-11-23T11:20:18Z</time>
      </trkpt>
      <trkpt lat="48.71314" lon="7.16355">
        <ele>311.7</ele>
        <time>2023-11-23T11:20:24Z</time>
      </trkpt>
      <trkpt lat="48.71296" lon="7.16342">
        <ele>311.9</ele>
        <time>2023-11-23T11:20:30Z</time>
      </trkpt>
      <trkpt lat="48.7128" lon="7.16329">
        <ele>312.1</ele>
        <time>2023-11-23T11:20:36Z</time>
      </trkpt>
      <trkpt lat="48.71264" lon="7.16315">
        <ele>312.3</ele>
        <time>2023-11-23T11:20:42Z</time>
      </trkpt>
      <trkpt lat="48.71246" lon="7.163">
        <ele>312.7</ele>
        <time>2023-11-23T11:20:49Z</time>
      </trkpt>
      <trkpt lat="48.71229" lon="7.16283">
        <ele>313.1</ele>
        <time>2023-11-23T11:20:56Z</time>
      </trkpt>
      <trkpt lat="48.71213" lon="7.16269">
        <ele>313.6</ele>
        <time>2023-11-23T11:21:03Z</time>
      </trkpt>
      <trkpt lat="48.71196" lon="7.16258">
        <ele>314.4</ele>
        <time>2023-11-23T11:21:10Z</time>
      </trkpt>
      <trkpt lat="48.71177" lon="7.16256">
        <ele>315.3</ele>
        <time>2023-11-23T11:21:19Z</time>
      </trkpt>
      <trkpt lat="48.7116" lon="7.16268">
        <ele>316.2</ele>
        <time>2023-11-23T11:21:27Z</time>
      </trkpt>
      <trkpt lat="48.71149" lon="7.16274">
        <ele>316.8</ele>
        <time>2023-11-23T11:21:32Z</time>
      </trkpt>
      <trkpt lat="48.71147" lon="7.16276">
        <ele>316.9</ele>
        <time>2023-11-23T11:21:33Z</time>
      </trkpt>
      <trkpt lat="48.71144" lon="7.16279">
        <ele>317</ele>
        <time>2023-11-23T11:21:35Z</time>
      </trkpt>
    </trkseg>
  </trk>
</gpx>